sensor_id;sensor_type;location;lat;lon;timestamp;temperature;humidity
12849;DHT22;6493;50.928;7.172;2022-09-09T00:02:47;13.90;57.40
12849;DHT22;6493;50.928;7.172;2022-09-09T00:07:55;13.90;57.70
12849;DHT22;6493;50.928;7.172;2022-09-09T00:13:09;13.80;57.60
12849;DHT22;6493;50.928;7.172;2022-09-09T00:18:25;13.80;57.60
12849;DHT22;6493;50.928;7.172;2022-09-09T00:23:33;13.80;57.60
12849;DHT22;6493;50.928;7.172;2022-09-09T00:28:41;13.80;57.60
12849;DHT22;6493;50.928;7.172;2022-09-09T00:33:49;13.70;57.50
12849;DHT22;6493;50.928;7.172;2022-09-09T00:38:56;13.80;57.60
12849;DHT22;6493;50.928;7.172;2022-09-09T00:44:02;13.70;57.50
12849;DHT22;6493;50.928;7.172;2022-09-09T00:49:18;13.70;57.50
12849;DHT22;6493;50.928;7.172;2022-09-09T00:54:44;13.70;57.80
12849;DHT22;6493;50.928;7.172;2022-09-09T00:59:51;13.60;57.90
12849;DHT22;6493;50.928;7.172;2022-09-09T01:05:02;13.60;57.70
12849;DHT22;6493;50.928;7.172;2022-09-09T01:10:15;13.60;57.90
12849;DHT22;6493;50.928;7.172;2022-09-09T01:15:26;13.60;58.00
12849;DHT22;6493;50.928;7.172;2022-09-09T01:20:39;13.60;58.10
12849;DHT22;6493;50.928;7.172;2022-09-09T01:26:15;13.50;58.10
12849;DHT22;6493;50.928;7.172;2022-09-09T01:31:32;13.50;58.50
12849;DHT22;6493;50.928;7.172;2022-09-09T01:36:41;13.50;58.60
12849;DHT22;6493;50.928;7.172;2022-09-09T01:41:48;13.50;58.20
12849;DHT22;6493;50.928;7.172;2022-09-09T01:46:53;13.40;58.10
12849;DHT22;6493;50.928;7.172;2022-09-09T01:51:57;13.40;58.10
12849;DHT22;6493;50.928;7.172;2022-09-09T01:57:15;13.40;58.20
12849;DHT22;6493;50.928;7.172;2022-09-09T02:02:27;13.40;58.40
12849;DHT22;6493;50.928;7.172;2022-09-09T02:07:47;13.40;58.60
12849;DHT22;6493;50.928;7.172;2022-09-09T02:13:12;13.30;58.50
12849;DHT22;6493;50.928;7.172;2022-09-09T02:18:22;13.30;58.60
12849;DHT22;6493;50.928;7.172;2022-09-09T02:23:28;13.20;58.80
12849;DHT22;6493;50.928;7.172;2022-09-09T02:28:36;13.20;58.70
12849;DHT22;6493;50.928;7.172;2022-09-09T02:33:42;13.20;58.80
12849;DHT22;6493;50.928;7.172;2022-09-09T02:38:48;13.20;58.80
12849;DHT22;6493;50.928;7.172;2022-09-09T02:44:00;13.20;59.30
12849;DHT22;6493;50.928;7.172;2022-09-09T02:49:09;13.20;59.00
12849;DHT22;6493;50.928;7.172;2022-09-09T02:54:20;13.20;59.10
12849;DHT22;6493;50.928;7.172;2022-09-09T02:59:27;13.20;59.40
12849;DHT22;6493;50.928;7.172;2022-09-09T03:04:32;13.20;59.60
12849;DHT22;6493;50.928;7.172;2022-09-09T03:09:35;13.20;59.30
12849;DHT22;6493;50.928;7.172;2022-09-09T03:14:41;13.20;59.70
12849;DHT22;6493;50.928;7.172;2022-09-09T03:19:47;13.20;59.40
12849;DHT22;6493;50.928;7.172;2022-09-09T03:24:52;13.20;59.40
12849;DHT22;6493;50.928;7.172;2022-09-09T03:29:57;13.20;59.30
12849;DHT22;6493;50.928;7.172;2022-09-09T03:35:00;13.20;59.50
12849;DHT22;6493;50.928;7.172;2022-09-09T03:40:05;13.20;59.60
12849;DHT22;6493;50.928;7.172;2022-09-09T03:45:11;13.20;59.70
12849;DHT22;6493;50.928;7.172;2022-09-09T03:50:16;13.20;59.60
12849;DHT22;6493;50.928;7.172;2022-09-09T03:55:22;13.20;59.90
12849;DHT22;6493;50.928;7.172;2022-09-09T04:00:27;13.20;59.60
12849;DHT22;6493;50.928;7.172;2022-09-09T04:05:33;13.20;59.80
12849;DHT22;6493;50.928;7.172;2022-09-09T04:10:37;13.20;59.70
12849;DHT22;6493;50.928;7.172;2022-09-09T04:15:42;13.20;60.20
12849;DHT22;6493;50.928;7.172;2022-09-09T04:20:47;13.20;59.80
12849;DHT22;6493;50.928;7.172;2022-09-09T04:25:53;13.20;59.80
12849;DHT22;6493;50.928;7.172;2022-09-09T04:31:04;13.20;59.80
12849;DHT22;6493;50.928;7.172;2022-09-09T04:36:08;13.20;59.90
12849;DHT22;6493;50.928;7.172;2022-09-09T04:41:12;13.30;59.80
12849;DHT22;6493;50.928;7.172;2022-09-09T04:46:20;13.30;59.80
12849;DHT22;6493;50.928;7.172;2022-09-09T04:51:25;13.30;60.30
12849;DHT22;6493;50.928;7.172;2022-09-09T04:56:30;13.20;60.40
12849;DHT22;6493;50.928;7.172;2022-09-09T05:01:37;13.20;60.20
12849;DHT22;6493;50.928;7.172;2022-09-09T05:06:41;13.20;60.40
12849;DHT22;6493;50.928;7.172;2022-09-09T05:11:47;13.20;60.80
12849;DHT22;6493;50.928;7.172;2022-09-09T05:17:05;13.10;61.20
12849;DHT22;6493;50.928;7.172;2022-09-09T05:22:12;13.10;61.20
12849;DHT22;6493;50.928;7.172;2022-09-09T05:27:19;13.10;61.10
12849;DHT22;6493;50.928;7.172;2022-09-09T05:32:25;13.10;61.60
12849;DHT22;6493;50.928;7.172;2022-09-09T05:37:30;13.10;61.30
12849;DHT22;6493;50.928;7.172;2022-09-09T05:42:34;13.00;61.50
12849;DHT22;6493;50.928;7.172;2022-09-09T05:47:40;13.00;61.50
12849;DHT22;6493;50.928;7.172;2022-09-09T05:52:46;13.10;61.60
12849;DHT22;6493;50.928;7.172;2022-09-09T05:57:52;13.10;61.70
12849;DHT22;6493;50.928;7.172;2022-09-09T06:02:57;13.10;61.60
12849;DHT22;6493;50.928;7.172;2022-09-09T06:08:01;13.10;61.50
12849;DHT22;6493;50.928;7.172;2022-09-09T06:13:06;13.10;61.40
12849;DHT22;6493;50.928;7.172;2022-09-09T06:18:14;13.20;61.70
12849;DHT22;6493;50.928;7.172;2022-09-09T06:23:20;13.20;61.70
12849;DHT22;6493;50.928;7.172;2022-09-09T06:28:24;13.20;61.70
12849;DHT22;6493;50.928;7.172;2022-09-09T06:33:32;13.20;61.70
12849;DHT22;6493;50.928;7.172;2022-09-09T06:38:37;13.30;61.80
12849;DHT22;6493;50.928;7.172;2022-09-09T06:43:41;13.40;61.80
12849;DHT22;6493;50.928;7.172;2022-09-09T06:48:48;13.40;61.80
12849;DHT22;6493;50.928;7.172;2022-09-09T06:53:54;13.50;62.00
12849;DHT22;6493;50.928;7.172;2022-09-09T06:59:00;13.60;62.00
12849;DHT22;6493;50.928;7.172;2022-09-09T07:04:06;13.70;62.20
12849;DHT22;6493;50.928;7.172;2022-09-09T07:09:13;13.80;62.10
12849;DHT22;6493;50.928;7.172;2022-09-09T07:14:19;13.90;62.20
12849;DHT22;6493;50.928;7.172;2022-09-09T07:19:29;14.10;62.30
12849;DHT22;6493;50.928;7.172;2022-09-09T07:24:33;14.20;62.00
12849;DHT22;6493;50.928;7.172;2022-09-09T07:29:37;14.40;62.80
12849;DHT22;6493;50.928;7.172;2022-09-09T07:34:44;14.60;61.90
12849;DHT22;6493;50.928;7.172;2022-09-09T07:39:48;14.70;61.50
12849;DHT22;6493;50.928;7.172;2022-09-09T07:44:54;14.90;61.60
12849;DHT22;6493;50.928;7.172;2022-09-09T07:50:00;15.10;61.50
12849;DHT22;6493;50.928;7.172;2022-09-09T07:55:06;15.40;61.80
12849;DHT22;6493;50.928;7.172;2022-09-09T08:00:12;15.80;61.00
12849;DHT22;6493;50.928;7.172;2022-09-09T08:05:21;16.10;60.50
12849;DHT22;6493;50.928;7.172;2022-09-09T08:10:25;16.20;59.10
12849;DHT22;6493;50.928;7.172;2022-09-09T08:15:31;16.20;58.90
12849;DHT22;6493;50.928;7.172;2022-09-09T08:20:38;16.10;57.90
12849;DHT22;6493;50.928;7.172;2022-09-09T08:25:41;16.00;57.70
12849;DHT22;6493;50.928;7.172;2022-09-09T08:30:47;15.90;57.40
12849;DHT22;6493;50.928;7.172;2022-09-09T08:35:53;15.80;58.00
12849;DHT22;6493;50.928;7.172;2022-09-09T08:41:10;15.80;58.10
12849;DHT22;6493;50.928;7.172;2022-09-09T08:46:22;15.80;58.20
12849;DHT22;6493;50.928;7.172;2022-09-09T08:51:31;15.90;57.80
12849;DHT22;6493;50.928;7.172;2022-09-09T08:56:36;15.90;57.90
12849;DHT22;6493;50.928;7.172;2022-09-09T09:01:50;15.90;57.90
12849;DHT22;6493;50.928;7.172;2022-09-09T09:07:10;16.10;57.90
12849;DHT22;6493;50.928;7.172;2022-09-09T09:12:21;16.10;57.50
12849;DHT22;6493;50.928;7.172;2022-09-09T09:17:29;16.10;57.40
12849;DHT22;6493;50.928;7.172;2022-09-09T09:22:45;16.10;57.10
12849;DHT22;6493;50.928;7.172;2022-09-09T09:27:58;16.10;57.10
12849;DHT22;6493;50.928;7.172;2022-09-09T09:33:10;16.20;57.00
12849;DHT22;6493;50.928;7.172;2022-09-09T09:38:20;16.30;57.80
12849;DHT22;6493;50.928;7.172;2022-09-09T09:43:53;16.50;56.50
12849;DHT22;6493;50.928;7.172;2022-09-09T09:49:00;16.60;57.00
12849;DHT22;6493;50.928;7.172;2022-09-09T09:54:14;16.60;56.10
12849;DHT22;6493;50.928;7.172;2022-09-09T09:59:34;16.50;56.00
12849;DHT22;6493;50.928;7.172;2022-09-09T10:04:47;16.40;56.10
12849;DHT22;6493;50.928;7.172;2022-09-09T10:09:55;16.40;56.10
12849;DHT22;6493;50.928;7.172;2022-09-09T10:15:05;16.40;56.20
12849;DHT22;6493;50.928;7.172;2022-09-09T10:20:26;16.40;55.30
12849;DHT22;6493;50.928;7.172;2022-09-09T10:25:49;16.40;55.20
12849;DHT22;6493;50.928;7.172;2022-09-09T10:31:02;16.50;55.80
12849;DHT22;6493;50.928;7.172;2022-09-09T10:36:13;16.60;55.60
12849;DHT22;6493;50.928;7.172;2022-09-09T10:41:31;16.60;55.20
12849;DHT22;6493;50.928;7.172;2022-09-09T10:46:45;16.60;54.80
12849;DHT22;6493;50.928;7.172;2022-09-09T10:52:00;16.70;55.40
12849;DHT22;6493;50.928;7.172;2022-09-09T10:57:11;16.70;55.30
12849;DHT22;6493;50.928;7.172;2022-09-09T11:02:20;16.70;55.30
12849;DHT22;6493;50.928;7.172;2022-09-09T11:07:31;16.80;55.40
12849;DHT22;6493;50.928;7.172;2022-09-09T11:12:39;16.90;55.10
12849;DHT22;6493;50.928;7.172;2022-09-09T11:17:47;16.90;54.80
12849;DHT22;6493;50.928;7.172;2022-09-09T11:22:56;17.00;54.70
12849;DHT22;6493;50.928;7.172;2022-09-09T11:28:31;17.10;55.40
12849;DHT22;6493;50.928;7.172;2022-09-09T11:33:56;17.30;54.60
12849;DHT22;6493;50.928;7.172;2022-09-09T11:39:16;17.50;53.70
12849;DHT22;6493;50.928;7.172;2022-09-09T11:44:28;17.60;53.70
12849;DHT22;6493;50.928;7.172;2022-09-09T11:49:40;17.70;53.40
12849;DHT22;6493;50.928;7.172;2022-09-09T11:54:47;17.70;53.70
12849;DHT22;6493;50.928;7.172;2022-09-09T11:59:52;17.70;53.30
12849;DHT22;6493;50.928;7.172;2022-09-09T12:05:01;17.70;53.20
12849;DHT22;6493;50.928;7.172;2022-09-09T12:10:22;17.60;53.20
12849;DHT22;6493;50.928;7.172;2022-09-09T12:15:28;17.60;52.50
12849;DHT22;6493;50.928;7.172;2022-09-09T12:20:34;17.60;53.20
12849;DHT22;6493;50.928;7.172;2022-09-09T12:25:58;17.70;53.00
12849;DHT22;6493;50.928;7.172;2022-09-09T12:31:09;17.70;52.30
12849;DHT22;6493;50.928;7.172;2022-09-09T12:36:17;17.70;53.30
12849;DHT22;6493;50.928;7.172;2022-09-09T12:41:23;17.60;52.70
12849;DHT22;6493;50.928;7.172;2022-09-09T12:46:33;17.60;52.10
12849;DHT22;6493;50.928;7.172;2022-09-09T12:51:38;17.60;52.20
12849;DHT22;6493;50.928;7.172;2022-09-09T12:56:45;17.50;52.10
12849;DHT22;6493;50.928;7.172;2022-09-09T13:01:57;17.40;52.30
12849;DHT22;6493;50.928;7.172;2022-09-09T13:07:06;17.40;51.40
12849;DHT22;6493;50.928;7.172;2022-09-09T13:12:16;17.40;52.00
12849;DHT22;6493;50.928;7.172;2022-09-09T13:17:23;17.40;52.60
12849;DHT22;6493;50.928;7.172;2022-09-09T13:22:30;17.50;52.70
12849;DHT22;6493;50.928;7.172;2022-09-09T13:27:36;17.60;53.10
12849;DHT22;6493;50.928;7.172;2022-09-09T13:32:43;17.60;52.50
12849;DHT22;6493;50.928;7.172;2022-09-09T13:37:46;17.50;52.00
12849;DHT22;6493;50.928;7.172;2022-09-09T13:42:52;17.30;52.30
12849;DHT22;6493;50.928;7.172;2022-09-09T13:48:09;17.20;52.60
12849;DHT22;6493;50.928;7.172;2022-09-09T13:53:13;17.10;52.90
12849;DHT22;6493;50.928;7.172;2022-09-09T13:58:17;17.20;53.10
12849;DHT22;6493;50.928;7.172;2022-09-09T14:03:22;17.30;53.00
12849;DHT22;6493;50.928;7.172;2022-09-09T14:08:27;17.40;52.90
12849;DHT22;6493;50.928;7.172;2022-09-09T14:13:39;17.40;52.40
12849;DHT22;6493;50.928;7.172;2022-09-09T14:18:44;17.40;52.20
12849;DHT22;6493;50.928;7.172;2022-09-09T14:23:48;17.40;51.80
12849;DHT22;6493;50.928;7.172;2022-09-09T14:28:52;17.40;51.70
12849;DHT22;6493;50.928;7.172;2022-09-09T14:33:58;17.40;52.20
12849;DHT22;6493;50.928;7.172;2022-09-09T14:39:02;17.40;52.50
12849;DHT22;6493;50.928;7.172;2022-09-09T14:44:06;17.50;52.40
12849;DHT22;6493;50.928;7.172;2022-09-09T14:49:11;17.60;52.50
12849;DHT22;6493;50.928;7.172;2022-09-09T14:54:15;17.60;52.10
12849;DHT22;6493;50.928;7.172;2022-09-09T14:59:19;17.60;52.20
12849;DHT22;6493;50.928;7.172;2022-09-09T15:04:25;17.60;52.10
12849;DHT22;6493;50.928;7.172;2022-09-09T15:09:29;17.50;51.90
12849;DHT22;6493;50.928;7.172;2022-09-09T15:14:33;17.40;52.00
12849;DHT22;6493;50.928;7.172;2022-09-09T15:19:38;17.20;52.30
12849;DHT22;6493;50.928;7.172;2022-09-09T15:24:42;17.10;52.60
12849;DHT22;6493;50.928;7.172;2022-09-09T15:29:45;16.90;52.70
12849;DHT22;6493;50.928;7.172;2022-09-09T15:34:50;16.70;52.90
12849;DHT22;6493;50.928;7.172;2022-09-09T15:39:55;16.60;53.30
12849;DHT22;6493;50.928;7.172;2022-09-09T15:45:00;16.50;53.40
12849;DHT22;6493;50.928;7.172;2022-09-09T15:50:07;16.30;53.60
12849;DHT22;6493;50.928;7.172;2022-09-09T15:55:10;16.30;54.00
12849;DHT22;6493;50.928;7.172;2022-09-09T16:00:14;16.10;54.50
12849;DHT22;6493;50.928;7.172;2022-09-09T16:05:19;16.00;54.30
12849;DHT22;6493;50.928;7.172;2022-09-09T16:10:23;15.80;54.50
12849;DHT22;6493;50.928;7.172;2022-09-09T16:15:26;15.60;54.50
12849;DHT22;6493;50.928;7.172;2022-09-09T16:20:31;15.40;54.60
12849;DHT22;6493;50.928;7.172;2022-09-09T16:25:35;15.20;54.50
12849;DHT22;6493;50.928;7.172;2022-09-09T16:30:39;15.10;54.50
12849;DHT22;6493;50.928;7.172;2022-09-09T16:35:44;15.00;54.80
12849;DHT22;6493;50.928;7.172;2022-09-09T16:40:47;14.90;54.90
12849;DHT22;6493;50.928;7.172;2022-09-09T16:45:53;14.80;55.00
12849;DHT22;6493;50.928;7.172;2022-09-09T16:51:02;14.80;55.10
12849;DHT22;6493;50.928;7.172;2022-09-09T16:56:09;14.80;55.60
12849;DHT22;6493;50.928;7.172;2022-09-09T17:01:12;14.90;55.50
12849;DHT22;6493;50.928;7.172;2022-09-09T17:06:18;14.90;55.60
12849;DHT22;6493;50.928;7.172;2022-09-09T17:11:21;14.90;55.70
12849;DHT22;6493;50.928;7.172;2022-09-09T17:16:27;14.90;55.90
12849;DHT22;6493;50.928;7.172;2022-09-09T17:21:32;14.90;56.00
12849;DHT22;6493;50.928;7.172;2022-09-09T17:26:36;14.90;56.00
12849;DHT22;6493;50.928;7.172;2022-09-09T17:31:40;14.90;56.10
12849;DHT22;6493;50.928;7.172;2022-09-09T17:36:45;14.90;56.20
12849;DHT22;6493;50.928;7.172;2022-09-09T17:41:49;14.80;56.70
12849;DHT22;6493;50.928;7.172;2022-09-09T17:46:52;14.80;56.30
12849;DHT22;6493;50.928;7.172;2022-09-09T17:51:58;14.70;56.20
12849;DHT22;6493;50.928;7.172;2022-09-09T17:57:01;14.60;56.20
12849;DHT22;6493;50.928;7.172;2022-09-09T18:02:05;14.60;56.20
12849;DHT22;6493;50.928;7.172;2022-09-09T18:07:11;14.50;56.40
12849;DHT22;6493;50.928;7.172;2022-09-09T18:12:15;14.50;56.50
12849;DHT22;6493;50.928;7.172;2022-09-09T18:17:19;14.40;56.60
12849;DHT22;6493;50.928;7.172;2022-09-09T18:22:24;14.30;56.80
12849;DHT22;6493;50.928;7.172;2022-09-09T18:27:27;14.30;57.10
12849;DHT22;6493;50.928;7.172;2022-09-09T18:32:31;14.20;57.30
12849;DHT22;6493;50.928;7.172;2022-09-09T18:37:36;14.10;57.20
12849;DHT22;6493;50.928;7.172;2022-09-09T18:42:41;14.10;57.50
12849;DHT22;6493;50.928;7.172;2022-09-09T18:47:46;14.10;57.50
12849;DHT22;6493;50.928;7.172;2022-09-09T18:52:52;14.00;58.10
12849;DHT22;6493;50.928;7.172;2022-09-09T18:57:55;14.00;57.50
12849;DHT22;6493;50.928;7.172;2022-09-09T19:03:00;14.00;57.50
12849;DHT22;6493;50.928;7.172;2022-09-09T19:08:04;14.00;57.50
12849;DHT22;6493;50.928;7.172;2022-09-09T19:13:08;14.00;57.80
12849;DHT22;6493;50.928;7.172;2022-09-09T19:18:12;14.00;57.50
12849;DHT22;6493;50.928;7.172;2022-09-09T19:23:17;13.90;57.40
12849;DHT22;6493;50.928;7.172;2022-09-09T19:28:21;13.80;57.50
12849;DHT22;6493;50.928;7.172;2022-09-09T19:33:26;13.80;57.60
12849;DHT22;6493;50.928;7.172;2022-09-09T19:38:31;13.80;57.60
12849;DHT22;6493;50.928;7.172;2022-09-09T19:43:35;13.70;57.50
12849;DHT22;6493;50.928;7.172;2022-09-09T19:48:41;13.70;57.50
12849;DHT22;6493;50.928;7.172;2022-09-09T19:53:47;13.60;57.50
12849;DHT22;6493;50.928;7.172;2022-09-09T19:58:52;13.60;57.80
12849;DHT22;6493;50.928;7.172;2022-09-09T20:03:57;13.60;57.70
12849;DHT22;6493;50.928;7.172;2022-09-09T20:09:04;13.50;57.80
12849;DHT22;6493;50.928;7.172;2022-09-09T20:14:08;13.50;58.00
12849;DHT22;6493;50.928;7.172;2022-09-09T20:19:14;13.50;58.10
12849;DHT22;6493;50.928;7.172;2022-09-09T20:24:20;13.50;58.20
12849;DHT22;6493;50.928;7.172;2022-09-09T20:29:24;13.40;58.60
12849;DHT22;6493;50.928;7.172;2022-09-09T20:34:28;13.40;58.30
12849;DHT22;6493;50.928;7.172;2022-09-09T20:39:33;13.40;58.40
12849;DHT22;6493;50.928;7.172;2022-09-09T20:44:37;13.40;58.60
12849;DHT22;6493;50.928;7.172;2022-09-09T20:49:40;13.40;58.60
12849;DHT22;6493;50.928;7.172;2022-09-09T20:54:46;13.40;58.70
12849;DHT22;6493;50.928;7.172;2022-09-09T20:59:50;13.30;58.80
12849;DHT22;6493;50.928;7.172;2022-09-09T21:04:54;13.30;58.70
12849;DHT22;6493;50.928;7.172;2022-09-09T21:09:59;13.30;59.10
12849;DHT22;6493;50.928;7.172;2022-09-09T21:15:03;13.30;58.90
12849;DHT22;6493;50.928;7.172;2022-09-09T21:20:08;13.30;58.90
12849;DHT22;6493;50.928;7.172;2022-09-09T21:25:13;13.30;59.00
12849;DHT22;6493;50.928;7.172;2022-09-09T21:30:17;13.30;59.00
12849;DHT22;6493;50.928;7.172;2022-09-09T21:35:20;13.30;59.00
12849;DHT22;6493;50.928;7.172;2022-09-09T21:40:25;13.30;59.00
12849;DHT22;6493;50.928;7.172;2022-09-09T21:45:29;13.30;59.00
12849;DHT22;6493;50.928;7.172;2022-09-09T21:50:34;13.30;59.00
12849;DHT22;6493;50.928;7.172;2022-09-09T21:55:40;13.20;58.90
12849;DHT22;6493;50.928;7.172;2022-09-09T22:00:45;13.10;58.90
12849;DHT22;6493;50.928;7.172;2022-09-09T22:05:49;13.10;59.00
12849;DHT22;6493;50.928;7.172;2022-09-09T22:10:56;13.10;59.20
12849;DHT22;6493;50.928;7.172;2022-09-09T22:16:01;13.10;59.20
12849;DHT22;6493;50.928;7.172;2022-09-09T22:21:08;13.10;59.30
12849;DHT22;6493;50.928;7.172;2022-09-09T22:26:13;13.10;59.30
12849;DHT22;6493;50.928;7.172;2022-09-09T22:31:17;13.10;59.30
12849;DHT22;6493;50.928;7.172;2022-09-09T22:36:22;13.10;59.40
12849;DHT22;6493;50.928;7.172;2022-09-09T22:41:28;13.10;59.50
12849;DHT22;6493;50.928;7.172;2022-09-09T22:46:33;13.10;59.50
12849;DHT22;6493;50.928;7.172;2022-09-09T22:51:36;13.00;59.50
12849;DHT22;6493;50.928;7.172;2022-09-09T22:56:41;13.00;59.50
12849;DHT22;6493;50.928;7.172;2022-09-09T23:01:45;13.00;59.60
12849;DHT22;6493;50.928;7.172;2022-09-09T23:06:50;13.00;59.70
12849;DHT22;6493;50.928;7.172;2022-09-09T23:11:55;12.90;59.50
12849;DHT22;6493;50.928;7.172;2022-09-09T23:16:58;12.90;59.50
12849;DHT22;6493;50.928;7.172;2022-09-09T23:22:03;12.80;59.50
12849;DHT22;6493;50.928;7.172;2022-09-09T23:27:09;12.80;59.50
12849;DHT22;6493;50.928;7.172;2022-09-09T23:32:12;12.80;59.60
12849;DHT22;6493;50.928;7.172;2022-09-09T23:37:16;12.80;59.60
12849;DHT22;6493;50.928;7.172;2022-09-09T23:42:21;12.70;59.50
12849;DHT22;6493;50.928;7.172;2022-09-09T23:47:25;12.70;59.60
12849;DHT22;6493;50.928;7.172;2022-09-09T23:52:28;12.70;59.60
12849;DHT22;6493;50.928;7.172;2022-09-09T23:57:34;12.80;59.60
